Henly, Texas
Current Conditions -  °F | °C
As of 10:15 AM on Thursday 30 Oct 2014 (Local Time) from KRYW Reporting Station
Broken Clouds Broken Clouds  
Wind Chill: 69°   Ceiling: 5000
Heat Index: 69°   Visibility: 10mi
Dew Point: 54°   Wind: 7mph
Humidity: 60%   Direction: 110°ESE
Pressure: 30.18"   Gusts: NA
Location:  30.2468°N, 98.1159°W
Report Text: KRYW 301515Z AUTO 11006KT 10SM SCT027 BKN050 20/12 A3018 RMK AO2 T02040124
Loading
Personal Weather Stations






























Interactive Weather Map
Tropical Storm Tracking
New forecast layout! Learn more

10-Day Weather Forecast

Advertisements
Track Severe Weather on mobile